• Join FlightAware (Why Join?)
  • Login
  • US Flag 
05:39PM EDT


 

Airport Tracker/Info


-or-


 

Live Flight TrackerFlight Track Log ✈ SWA2788 ✈ 15-Sep-2013 ✈ KPHX - KSJC

Flight Track Log - Related Links

Times and Time Zones

All times are in EDT time to prevent confusion due to time zone crossing. See the SWA2788 flight status page for this flight to view local times or setup timezone preferences in your user account.

Time Position Orientation Groundspeed Altitude Reporting Facility
EDT Latitude Longitude Course Direction KTS MPH feet Rate Location/Type
02:55PM 33.4333 -111.9833 90° East 190 219 2,100  Level Phoenix TRACON
02:56PM 33.4333 -111.9167 90° East 227 261 3,800 2,100 Climbing Phoenix TRACON
02:57PM 33.3833 -111.8833 151° Southeast 251 289 6,400 2,280 Climbing Phoenix TRACON
02:58PM 33.3833 -111.9667 270° West 285 328 8,400 2,100 Climbing Phoenix TRACON
02:59PM 33.3833 -112.0667 270° West 305 351 10,600 1,800 Climbing Phoenix TRACON
03:00PM 33.4014 -112.2281 278° West 366 421 13,000 1,920 Climbing Albuquerque Center
03:01PM 33.4133 -112.3622 276° West 380 437 15,400 2,160 Climbing Albuquerque Center
03:02PM 33.4239 -112.4828 276° West 387 445 17,500 1,980 Climbing Albuquerque Center
03:03PM 33.4350 -112.6111 276° West 392 451 19,600 1,860 Climbing Albuquerque Center
03:04PM 33.4458 -112.7403 276° West 392 451 21,400 1,680 Climbing Albuquerque Center
03:05PM 33.4672 -112.9003 279° West 407 468 23,100 1,440 Climbing Albuquerque Center
03:06PM 33.4953 -113.0347 284° West 418 481 24,400 1,380 Climbing Albuquerque Center
03:07PM 33.5203 -113.1731 282° West 423 487 26,000 1,680 Climbing Albuquerque Center
03:08PM 33.5456 -113.3089 283° West 423 487 27,900 1,860 Climbing Albuquerque Center
03:09PM 33.5706 -113.4417 283° West 415 478 29,900 1,920 Climbing Albuquerque Center
03:10PM 33.5992 -113.5919 283° West 394 453 32,000 1,380 Climbing Albuquerque Center
03:12PM 33.6186 -113.6975 283° West 384 442 32,900 1,080 Climbing Albuquerque Center
03:13PM 33.6592 -113.8436 288° West 386 444 34,300 1,020 Climbing Albuquerque Center
03:14PM 33.7031 -113.9600 294° West 384 442 35,100 780 Climbing Albuquerque Center
03:15PM 33.7450 -114.0775 293° West 383 441 36,000 420 Climbing Albuquerque Center
03:16PM 33.7892 -114.1950 294° West 385 443 36,000  Level Albuquerque Center
03:17PM 33.8358 -114.3311 292° West 388 447 36,000  Level Albuquerque Center
03:18PM 33.8733 -114.4333 294° West 389 448 36,000  Level Los Angeles Center
03:19PM 33.9161 -114.5525 293° West 390 449 36,000  Level Los Angeles Center
03:20PM 33.9653 -114.6950 293° West 387 445 36,000  Level Los Angeles Center
03:21PM 34.0086 -114.8142 294° West 389 448 36,000  Level Los Angeles Center
03:22PM 34.0503 -114.9328 293° West 386 444 36,000  Level Los Angeles Center
03:23PM 34.0914 -115.0508 293° West 385 443 36,000  Level Los Angeles Center
03:24PM 34.1319 -115.1692 293° West 384 442 36,000  Level Los Angeles Center
03:25PM 34.1731 -115.2867 293° West 383 441 36,000  Level Los Angeles Center
03:26PM 34.2222 -115.4300 293° West 386 444 36,000  Level Los Angeles Center
03:27PM 34.2633 -115.5481 293° West 384 442 36,000  Level Los Angeles Center
03:28PM 34.3039 -115.6658 293° West 382 440 36,000  Level Los Angeles Center
03:29PM 34.3436 -115.7844 292° West 382 440 36,000  Level Los Angeles Center
03:30PM 34.3900 -115.9186 293° West 384 442 36,000  Level Los Angeles Center
03:31PM 34.4300 -116.0375 292° West 383 441 36,000  Level Los Angeles Center
03:32PM 34.4706 -116.1564 293° West 383 441 36,000  Level Los Angeles Center
03:33PM 34.5111 -116.2750 293° West 382 440 36,000  Level Los Angeles Center
03:34PM 34.5517 -116.3944 292° West 383 441 36,000  Level Los Angeles Center
03:35PM 34.5906 -116.5153 291° West 385 443 36,000  Level Los Angeles Center
03:36PM 34.6386 -116.6583 292° West 383 441 36,000  Level Los Angeles Center
03:37PM 34.6789 -116.7797 292° West 388 447 36,000  Level Los Angeles Center
03:38PM 34.7181 -116.9003 292° West 385 443 36,000  Level Los Angeles Center
03:39PM 34.7583 -117.0217 292° West 387 445 36,000  Level Los Angeles Center
03:41PM 34.8042 -117.1533 293° West  Level FlightAware Approximate
03:41PM 34.8458 -117.2894 293° West 390 449 36,000  Level Los Angeles Center
03:42PM 34.8847 -117.4139 291° West 393 452 36,000  Level Los Angeles Center
03:43PM 34.9242 -117.5397 291° West 397 457 36,000  Level Los Angeles Center
03:44PM 34.9628 -117.6697 290° West 422 486 36,000  Level Los Angeles Center
03:46PM 35.0072 -117.7956 293° West 407 468 36,000  Level Los Angeles Center
03:47PM 35.0472 -117.9186 292° West 389 448 36,000  Level Los Angeles Center
03:48PM 35.0883 -118.0433 292° West 394 453 36,000  Level Los Angeles Center
03:49PM 35.1275 -118.1683 291° West 392 451 36,000  Level Los Angeles Center
03:50PM 35.1747 -118.3203 291° West 398 458 36,000  Level Los Angeles Center
03:51PM 35.2150 -118.4469 291° West 399 459 36,000  Level Los Angeles Center
03:52PM 35.2539 -118.5672 292° West 398 458 36,000  Level Los Angeles Center
03:53PM 35.2942 -118.6956 291° West 401 461 36,000  Level Los Angeles Center
03:54PM 35.3417 -118.8489 291° West 401 461 36,000  Level Los Angeles Center
03:55PM 35.3822 -118.9778 291° West 404 465 36,000  Level Los Angeles Center
03:56PM 35.4231 -119.1069 291° West 406 467 36,000  Level Los Angeles Center
03:57PM 35.4619 -119.2369 290° West 407 468 36,000  Level Los Angeles Center
03:58PM 35.5014 -119.3669 290° West 407 468 36,000  Level Los Angeles Center
03:59PM 35.5475 -119.5233 290° West 407 468 36,000  Level Los Angeles Center
04:00PM 35.5944 -119.6803 290° West 409 471 36,000  Level Los Angeles Center
04:01PM 35.6322 -119.8114 290° West 409 471 36,000  Level Los Angeles Center
04:02PM 35.6703 -119.9394 290° West 405 466 36,000  Level Los Angeles Center
04:03PM 35.7094 -120.0714 290° West 411 473 36,000  Level Oakland Center
04:04PM 35.7553 -120.2283 290° West 411 473 36,000  Level Oakland Center
04:05PM 35.7939 -120.3594 290° West 412 474 36,000  Level Oakland Center
04:06PM 35.8333 -120.4908 290° West 412 474 36,000  Level Oakland Center
04:07PM 35.9050 -120.6019 309° West 415 478 36,000  Level Oakland Center
04:08PM 35.9797 -120.7103 310° West 417 480 36,000 -720 Level Oakland Center
04:10PM 36.0556 -120.8214 310° West 421 484 34,600 -2,520 Descending Oakland Center
04:11PM 36.1458 -120.9553 310° West 424 488 30,800 -3,240 Descending Oakland Center
04:12PM 36.2211 -121.0681 310° West 426 490 28,000 -2,640 Descending Oakland Center
04:13PM 36.2947 -121.1764 310° West 415 478 25,500 -2,340 Descending Oakland Center
04:14PM 36.3639 -121.2817 309° West 397 457 23,200 -2,640 Descending Oakland Center
04:15PM 36.4397 -121.3750 315° West 386 444 20,100 -2,700 Descending Oakland Center
04:16PM 36.5511 -121.4081 347° North 395 455 17,700 -2,640 Descending Oakland Center
04:17PM 36.6572 -121.4436 345° North 395 455 14,700 -2,700 Descending Oakland Center
04:18PM 36.7836 -121.4822 346° North 384 442 12,200 -2,220 Descending Oakland Center
04:19PM 36.8808 -121.5242 341° North 366 421 10,200 -1,440 Descending Oakland Center
04:20PM 36.9578 -121.5825 329° Northwest 323 372 9,300 -1,260 Descending Oakland Center
04:21PM 37.0350 -121.6314 333° Northwest 312 359 7,600 -1,320 Descending Oakland Center
04:22PM 37.1169 -121.6811 334° Northwest 293 337 6,600 -1,260 Descending Oakland Center
04:23PM 37.1667 -121.7167 330° Northwest 277 319 5,500 -1,680 Descending Northern Cal TRACON
04:24PM 37.2167 -121.7667 321° Northwest 262 302 3,900 -1,620 Descending Northern Cal TRACON
04:25PM 37.2667 -121.8167 321° Northwest 222 255 2,300 -1,200 Descending Northern Cal TRACON
04:26PM 37.3000 -121.8667 310° West 169 194 1,600 -780 Descending Northern Cal TRACON
04:27PM 37.3333 -121.9000 322° Northwest 133 153 700 -840 Descending Northern Cal TRACON
04:29PM 37.3500 -121.9167 North  Level FlightAware Approximate
04:36PM 37.3627 -121.9291 North  Level Estimated
04:37PM 37.3627 -121.9291 North  Level Estimated